Time;durP1;ratioP1;P1;durP2;ratioP2;P2;SDS_P1;SDS_P2;PMS_P1;PMS_P2;Temp;Humidity;BMP_temperature;BMP_pressure;BME280_temperature;BME280_humidity;BME280_pressure;Samples;Min_cycle;Max_cycle;Signal;HPM_P1;HPM_P2
2021/11/27 00:00:35;;;;;;;6.65;1.58;;;;;;;2.31;100.00;98387.50;5035631;28;20480;-76
2021/11/27 00:03:01;;;;;;;5.47;1.30;;;;;;;2.34;100.00;98386.94;5034874;28;20032;-76
2021/11/27 00:05:27;;;;;;;7.70;1.48;;;;;;;2.35;100.00;98366.63;5036194;28;20029;-76
2021/11/27 00:07:52;;;;;;;6.60;2.10;;;;;;;2.35;100.00;98358.41;5019325;28;20103;-76
2021/11/27 00:10:19;;;;;;;4.25;1.27;;;;;;;2.36;100.00;98353.75;5034563;28;20044;-76
2021/11/27 00:12:45;;;;;;;6.70;2.22;;;;;;;2.37;100.00;98348.00;5031327;28;20084;-76
2021/11/27 00:15:11;;;;;;;8.50;2.03;;;;;;;2.36;100.00;98340.88;5035994;28;20037;-76
2021/11/27 00:17:36;;;;;;;6.22;1.60;;;;;;;2.36;100.00;98334.56;5034475;28;20056;-76
2021/11/27 00:20:04;;;;;;;7.07;1.30;;;;;;;2.35;100.00;98341.19;5036633;28;20036;-76
2021/11/27 00:22:29;;;;;;;11.45;1.90;;;;;;;2.32;100.00;98339.84;5036114;28;20033;-76
2021/11/27 00:24:55;;;;;;;6.95;1.92;;;;;;;2.30;100.00;98353.00;5030223;28;20472;-76
2021/11/27 00:27:20;;;;;;;5.88;2.08;;;;;;;2.31;100.00;98353.81;5027884;28;20044;-76
2021/11/27 00:29:46;;;;;;;5.53;1.80;;;;;;;2.30;100.00;98342.03;5029499;28;20040;-76
2021/11/27 00:32:11;;;;;;;6.53;2.00;;;;;;;2.30;100.00;98341.22;5030656;28;20033;-76
2021/11/27 00:34:37;;;;;;;7.03;2.17;;;;;;;2.26;100.00;98348.38;5032283;28;20406;-76
2021/11/27 00:37:02;;;;;;;5.38;1.70;;;;;;;2.24;100.00;98338.56;5030444;28;20034;-76
2021/11/27 00:39:28;;;;;;;4.28;1.65;;;;;;;2.25;100.00;98336.63;5033078;28;20060;-76
2021/11/27 00:41:53;;;;;;;6.32;1.70;;;;;;;2.23;100.00;98334.19;5020759;28;20029;-77
2021/11/27 00:44:22;;;;;;;5.55;1.70;;;;;;;2.19;100.00;98330.38;5028622;28;20065;-76
2021/11/27 00:46:48;;;;;;;5.57;1.42;;;;;;;2.16;100.00;98327.44;5015051;28;20030;-76
2021/11/27 00:49:14;;;;;;;4.03;1.40;;;;;;;2.15;100.00;98348.53;5030083;28;20038;-76
2021/11/27 00:51:39;;;;;;;11.20;2.28;;;;;;;2.11;100.00;98341.19;5032462;28;20040;-76
2021/11/27 00:54:05;;;;;;;4.65;1.33;;;;;;;2.11;100.00;98333.78;5024191;28;20041;-76
2021/11/27 00:56:30;;;;;;;3.58;1.50;;;;;;;2.11;100.00;98343.91;5026747;28;20558;-76
2021/11/27 00:58:55;;;;;;;7.75;1.70;;;;;;;2.09;100.00;98338.75;5030352;28;20068;-76
2021/11/27 01:01:26;;;;;;;9.00;1.98;;;;;;;2.08;100.00;98360.94;5030596;28;20478;-76
2021/11/27 01:03:51;;;;;;;12.30;1.90;;;;;;;2.11;100.00;98377.59;5024939;28;20461;-76
2021/11/27 01:06:19;;;;;;;9.00;1.77;;;;;;;2.02;100.00;98379.34;5024476;28;20034;-76
2021/11/27 01:08:45;;;;;;;12.07;1.75;;;;;;;1.99;100.00;98388.13;5024845;28;20036;-76
2021/11/27 01:11:22;;;;;;;17.88;2.20;;;;;;;1.88;100.00;98389.34;5031815;28;20025;-76
2021/11/27 01:13:50;;;;;;;12.50;1.65;;;;;;;1.82;100.00;98387.75;5024162;28;20033;-77
2021/11/27 01:16:16;;;;;;;8.23;1.88;;;;;;;1.83;100.00;98383.91;5027353;28;20033;-76
2021/11/27 01:18:42;;;;;;;9.75;1.88;;;;;;;1.78;100.00;98362.88;5031647;28;20029;-77
2021/11/27 01:21:10;;;;;;;8.27;1.70;;;;;;;1.75;100.00;98347.03;5028655;28;20032;-76
2021/11/27 01:23:36;;;;;;;8.13;1.60;;;;;;;1.75;100.00;98336.09;5032499;28;20401;-76
2021/11/27 01:26:02;;;;;;;12.43;2.03;;;;;;;1.77;100.00;98323.75;5029735;28;20033;-76
2021/11/27 01:28:28;;;;;;;7.38;1.80;;;;;;;1.85;100.00;98324.22;5031123;28;20041;-76
2021/11/27 01:30:55;;;;;;;6.10;1.52;;;;;;;1.84;100.00;98317.94;5032692;28;20545;-76
2021/11/27 01:33:20;;;;;;;6.68;1.05;;;;;;;1.86;100.00;98318.44;5027142;28;20041;-76
2021/11/27 01:35:46;;;;;;;4.03;0.98;;;;;;;1.89;100.00;98309.66;5012276;28;20026;-76
2021/11/27 01:38:12;;;;;;;7.70;1.77;;;;;;;1.89;100.00;98309.66;5028603;28;20041;-76
2021/11/27 01:40:37;;;;;;;6.65;1.98;;;;;;;1.88;100.00;98305.28;5031765;28;20029;-76
2021/11/27 01:43:03;;;;;;;6.20;1.20;;;;;;;1.87;100.00;98311.06;5028078;28;20111;-76
2021/11/27 01:45:29;;;;;;;3.38;1.52;;;;;;;1.85;100.00;98327.78;5024446;28;20029;-76
2021/11/27 01:48:03;;;;;;;5.22;1.10;;;;;;;1.85;100.00;98319.56;5030136;28;20033;-76
2021/11/27 01:50:29;;;;;;;7.32;1.25;;;;;;;1.82;100.00;98324.81;5030707;28;20095;-76
2021/11/27 01:52:55;;;;;;;5.22;1.20;;;;;;;1.79;100.00;98326.19;5030166;28;20124;-76
2021/11/27 01:55:20;;;;;;;4.82;1.20;;;;;;;1.76;100.00;98322.13;5030236;28;20071;-76
2021/11/27 01:57:46;;;;;;;6.53;1.50;;;;;;;1.72;100.00;98328.44;5021980;28;20029;-76
2021/11/27 02:00:14;;;;;;;5.45;1.50;;;;;;;1.66;100.00;98329.63;5032228;28;20025;-76
2021/11/27 02:02:40;;;;;;;6.22;1.50;;;;;;;1.62;100.00;98323.09;5012019;28;20029;-76
2021/11/27 02:05:05;;;;;;;8.35;1.70;;;;;;;1.57;100.00;98315.75;5011309;28;20398;-76
2021/11/27 02:07:31;;;;;;;7.32;1.67;;;;;;;1.56;100.00;98312.22;5032916;28;20041;-76
2021/11/27 02:09:56;;;;;;;4.85;1.45;;;;;;;1.51;100.00;98309.50;5030073;28;20521;-76
2021/11/27 02:12:22;;;;;;;5.63;2.08;;;;;;;1.45;100.00;98302.47;5020969;28;20030;-75
2021/11/27 02:14:47;;;;;;;3.80;1.42;;;;;;;1.44;100.00;98305.47;5024752;28;20030;-76
2021/11/27 02:17:13;;;;;;;7.28;1.98;;;;;;;1.39;100.00;98300.84;5020496;28;20041;-76
2021/11/27 02:19:39;;;;;;;7.82;1.90;;;;;;;1.37;100.00;98292.16;5028378;28;20053;-75
2021/11/27 02:22:04;;;;;;;6.95;2.00;;;;;;;1.41;100.00;98293.19;5012632;28;20086;-75
2021/11/27 02:24:30;;;;;;;8.68;2.20;;;;;;;1.37;100.00;98305.81;5010445;28;20041;-76
2021/11/27 02:26:56;;;;;;;5.40;2.08;;;;;;;1.33;100.00;98307.47;4997122;28;20052;-76
2021/11/27 02:29:27;;;;;;;9.63;1.88;;;;;;;1.30;100.00;98297.13;5003974;28;20121;-76
2021/11/27 02:31:53;;;;;;;5.47;1.55;;;;;;;1.28;100.00;98289.22;5030491;28;20033;-76
2021/11/27 02:34:19;;;;;;;5.53;1.77;;;;;;;1.26;100.00;98290.59;5029324;28;20060;-76
2021/11/27 02:36:48;;;;;;;5.90;1.60;;;;;;;1.26;100.00;98285.94;5027486;28;20041;-76
2021/11/27 02:39:14;;;;;;;7.13;1.50;;;;;;;1.27;100.00;98286.75;5033541;28;20494;-76
2021/11/27 02:41:40;;;;;;;7.97;2.15;;;;;;;1.26;100.00;98285.13;5039308;28;20106;-76
2021/11/27 02:44:08;;;;;;;7.18;1.60;;;;;;;1.23;100.00;98289.25;5034535;28;20034;-76
2021/11/27 02:46:34;;;;;;;6.88;1.63;;;;;;;1.26;100.00;98282.41;5033930;28;20108;-76
2021/11/27 02:48:59;;;;;;;6.10;2.75;;;;;;;1.26;100.00;98280.47;5033856;28;20083;-76
2021/11/27 02:51:25;;;;;;;8.02;1.80;;;;;;;1.23;100.00;98275.59;5036884;28;20039;-76
2021/11/27 02:53:50;;;;;;;6.57;1.40;;;;;;;1.22;100.00;98284.88;5031964;28;20036;-76
2021/11/27 02:56:16;;;;;;;8.07;1.73;;;;;;;1.22;100.00;98275.88;5027311;28;20038;-76
2021/11/27 02:58:41;;;;;;;4.75;1.33;;;;;;;1.21;100.00;98274.25;5034207;28;20044;-76
2021/11/27 03:01:07;;;;;;;6.43;1.50;;;;;;;1.21;100.00;98255.91;5044659;28;20034;-75
2021/11/27 03:03:34;;;;;;;6.20;1.98;;;;;;;1.19;100.00;98249.09;5034500;28;20029;-76
2021/11/27 03:06:00;;;;;;;2.85;1.17;;;;;;;1.17;100.00;98254.88;5035383;28;20042;-76
2021/11/27 03:08:26;;;;;;;6.40;1.75;;;;;;;1.15;100.00;98262.53;5033395;28;20045;-76
2021/11/27 03:10:51;;;;;;;6.57;1.50;;;;;;;1.16;100.00;98241.47;5037835;28;20030;-75
2021/11/27 03:13:24;;;;;;;6.88;1.40;;;;;;;1.14;100.00;98228.06;5000158;28;20045;-76
2021/11/27 03:15:49;;;;;;;9.27;1.50;;;;;;;1.18;100.00;98222.88;5024387;28;20041;-76
2021/11/27 03:18:16;;;;;;;5.85;1.27;;;;;;;1.11;100.00;98224.03;5038733;28;20029;-76
2021/11/27 03:20:41;;;;;;;3.60;1.10;;;;;;;1.10;100.00;98216.09;5016954;28;20037;-76
2021/11/27 03:23:07;;;;;;;5.95;1.20;;;;;;;1.09;100.00;98209.81;5018879;28;20505;-76
2021/11/27 03:25:32;;;;;;;7.40;1.20;;;;;;;1.05;100.00;98202.47;5031994;28;20028;-75
2021/11/27 03:27:57;;;;;;;6.55;1.35;;;;;;;1.04;100.00;98200.88;5016198;28;20064;-76
2021/11/27 03:30:23;;;;;;;4.97;1.13;;;;;;;1.02;100.00;98198.41;5034824;28;20029;-76
2021/11/27 03:32:49;;;;;;;3.80;1.40;;;;;;;0.97;100.00;98198.44;5035973;28;20025;-76
2021/11/27 03:35:15;;;;;;;5.55;1.40;;;;;;;0.98;100.00;98196.56;5032684;28;20083;-76
2021/11/27 03:37:40;;;;;;;6.70;1.30;;;;;;;0.95;100.00;98186.16;5042607;28;20025;-76
2021/11/27 03:40:08;;;;;;;3.92;1.30;;;;;;;0.91;100.00;98202.34;5036398;28;20037;-76
2021/11/27 03:42:33;;;;;;;6.43;1.88;;;;;;;0.92;100.00;98193.06;5035153;28;20037;-76
2021/11/27 03:44:59;;;;;;;6.45;1.67;;;;;;;0.88;100.00;98173.66;5026905;28;20037;-76
2021/11/27 03:47:24;;;;;;;8.38;2.08;;;;;;;0.90;100.00;98173.38;5034592;28;20032;-76
2021/11/27 03:49:51;;;;;;;7.50;1.38;;;;;;;0.89;100.00;98169.00;5034414;28;20030;-76
2021/11/27 03:52:17;;;;;;;4.75;1.50;;;;;;;0.91;100.00;98158.59;5036913;28;20026;-76
2021/11/27 03:54:42;;;;;;;7.40;1.60;;;;;;;0.91;100.00;98166.81;5011321;28;20030;-76
2021/11/27 03:57:07;;;;;;;7.38;1.65;;;;;;;0.94;100.00;98174.44;5031134;28;20033;-76
2021/11/27 03:59:34;;;;;;;6.80;1.70;;;;;;;0.94;100.00;98190.81;5032074;28;20025;-76
2021/11/27 04:01:59;;;;;;;5.22;1.08;;;;;;;0.97;100.00;98184.78;5034137;28;20038;-76
2021/11/27 04:04:25;;;;;;;6.20;1.60;;;;;;;0.97;100.00;98178.50;5035702;28;20026;-76
2021/11/27 04:06:50;;;;;;;6.68;1.50;;;;;;;0.94;100.00;98181.81;5018540;28;20026;-76
2021/11/27 04:09:16;;;;;;;11.10;2.75;;;;;;;0.96;100.00;98188.63;5027277;28;20117;-76
2021/11/27 04:11:41;;;;;;;10.88;2.90;;;;;;;0.95;100.00;98169.78;5028367;28;20497;-76
2021/11/27 04:14:07;;;;;;;8.90;2.53;;;;;;;0.97;100.00;98162.09;5030032;28;20038;-76
2021/11/27 04:16:33;;;;;;;6.50;2.38;;;;;;;1.01;100.00;98161.25;5034698;28;20029;-76
2021/11/27 04:18:58;;;;;;;9.95;2.47;;;;;;;1.02;100.00;98171.06;5034901;28;20034;-76
2021/11/27 04:21:24;;;;;;;8.82;2.67;;;;;;;1.00;100.00;98167.78;5036479;28;20034;-76
2021/11/27 04:23:49;;;;;;;9.73;2.55;;;;;;;0.99;100.00;98155.25;4990722;28;1260987;-76
2021/11/27 04:26:15;;;;;;;10.63;2.25;;;;;;;0.99;100.00;98154.44;5038267;28;20029;-76
2021/11/27 04:28:41;;;;;;;8.15;2.10;;;;;;;0.99;100.00;98149.78;5034882;28;20068;-76
2021/11/27 04:31:06;;;;;;;7.25;2.03;;;;;;;1.00;100.00;98147.84;5032854;28;20034;-76
2021/11/27 04:33:32;;;;;;;7.43;2.40;;;;;;;1.00;100.00;98145.13;5017699;28;20061;-76
2021/11/27 04:35:57;;;;;;;8.80;2.10;;;;;;;1.02;100.00;98149.19;5034663;28;20037;-76
2021/11/27 04:38:23;;;;;;;8.98;2.03;;;;;;;1.01;100.00;98147.59;5032295;28;20034;-76
2021/11/27 04:40:49;;;;;;;10.00;2.08;;;;;;;1.02;100.00;98157.41;5035369;28;20038;-76
2021/11/27 04:43:14;;;;;;;6.80;2.28;;;;;;;1.02;100.00;98148.38;5034971;28;20045;-76
2021/11/27 04:45:40;;;;;;;10.23;2.17;;;;;;;0.99;100.00;98136.13;5032583;28;20059;-76
2021/11/27 04:48:06;;;;;;;11.50;2.38;;;;;;;0.97;100.00;98123.84;5037201;28;20095;-76
2021/11/27 04:50:31;;;;;;;12.98;2.15;;;;;;;1.01;100.00;98130.38;5033944;28;20041;-76
2021/11/27 04:52:57;;;;;;;13.80;2.42;;;;;;;1.02;100.00;98129.25;5035349;28;20049;-76
2021/11/27 04:55:23;;;;;;;9.43;2.08;;;;;;;1.01;100.00;98144.03;5035946;28;20064;-76
2021/11/27 04:57:48;;;;;;;7.75;2.00;;;;;;;1.00;100.00;98154.13;5015404;28;20108;-76
2021/11/27 05:00:19;;;;;;;6.93;1.80;;;;;;;1.02;100.00;98123.78;5036159;28;20021;-76
2021/11/27 05:02:44;;;;;;;12.70;2.40;;;;;;;1.01;100.00;98103.03;5017175;28;20393;-76
2021/11/27 05:05:10;;;;;;;7.75;1.80;;;;;;;0.98;100.00;98104.44;5029725;28;20026;-76
2021/11/27 05:07:35;;;;;;;8.10;1.50;;;;;;;0.99;100.00;98100.59;5025497;28;20033;-76
2021/11/27 05:10:01;;;;;;;11.90;1.85;;;;;;;1.02;100.00;98100.00;5035482;28;20083;-76
2021/11/27 05:12:26;;;;;;;10.40;2.25;;;;;;;1.01;100.00;98098.38;5035318;28;20048;-76
2021/11/27 05:14:52;;;;;;;9.90;2.47;;;;;;;0.97;100.00;98110.97;5036516;28;20041;-76
2021/11/27 05:17:18;;;;;;;10.90;2.28;;;;;;;1.01;100.00;98131.19;5018510;28;20505;-76
2021/11/27 05:19:43;;;;;;;9.88;2.40;;;;;;;1.00;100.00;98118.59;5032415;28;20030;-76
2021/11/27 05:22:09;;;;;;;7.25;1.90;;;;;;;0.99;100.00;98119.72;5035148;28;20030;-76
2021/11/27 05:24:34;;;;;;;10.18;1.80;;;;;;;1.00;100.00;98158.78;5033424;28;20498;-76
2021/11/27 05:27:00;;;;;;;9.35;2.40;;;;;;;1.00;100.00;98145.13;5035574;28;20083;-76
2021/11/27 05:29:26;;;;;;;8.15;1.98;;;;;;;0.99;100.00;98138.84;5035246;28;20041;-76
2021/11/27 05:31:54;;;;;;;8.43;1.92;;;;;;;1.02;100.00;98130.06;5033334;28;20030;-76
2021/11/27 05:34:40;;;;;;;10.80;1.90;;;;;;;1.02;100.00;98110.94;5033214;28;20033;-76
2021/11/27 05:37:06;;;;;;;4.55;2.03;;;;;;;1.05;100.00;98110.34;5035039;28;20041;-76
2021/11/27 05:39:31;;;;;;;10.85;2.10;;;;;;;1.05;100.00;98115.00;5044124;28;20033;-76
2021/11/27 05:41:57;;;;;;;9.95;2.30;;;;;;;1.09;100.00;98100.47;5016443;28;20091;-76
2021/11/27 05:44:22;;;;;;;10.23;2.50;;;;;;;1.13;100.00;98102.63;5015444;28;20030;-76
2021/11/27 05:46:48;;;;;;;9.27;2.05;;;;;;;1.17;100.00;98114.59;5033875;28;20025;-76
2021/11/27 05:49:13;;;;;;;8.07;1.73;;;;;;;1.18;100.00;98133.47;5034259;28;20551;-76
2021/11/27 05:51:39;;;;;;;6.85;1.80;;;;;;;1.20;100.00;98146.81;5032358;28;20045;-76
2021/11/27 05:54:04;;;;;;;6.93;1.20;;;;;;;1.24;100.00;98161.56;5029116;28;20061;-76
2021/11/27 05:56:30;;;;;;;7.88;1.85;;;;;;;1.25;100.00;98154.97;5024538;28;20026;-76
2021/11/27 05:58:56;;;;;;;4.47;1.58;;;;;;;1.28;100.00;98162.59;5034179;28;20483;-76
2021/11/27 06:01:23;;;;;;;8.90;1.92;;;;;;;1.31;100.00;98162.03;5032293;28;20100;-76
2021/11/27 06:03:48;;;;;;;6.35;1.73;;;;;;;1.31;100.00;98171.06;5033525;28;20029;-76
2021/11/27 06:06:14;;;;;;;10.18;1.90;;;;;;;1.31;100.00;98179.25;5016696;28;20028;-77
2021/11/27 06:08:39;;;;;;;9.93;2.10;;;;;;;1.36;100.00;98170.16;5031954;28;20029;-76
2021/11/27 06:11:05;;;;;;;7.18;1.65;;;;;;;1.38;100.00;98161.69;5022373;28;20080;-76
2021/11/27 06:13:30;;;;;;;9.18;1.73;;;;;;;1.39;100.00;98166.03;5029652;28;20401;-76
2021/11/27 06:15:56;;;;;;;10.25;2.28;;;;;;;1.41;100.00;98161.91;5032185;28;20037;-76
2021/11/27 06:18:21;;;;;;;6.05;1.52;;;;;;;1.45;100.00;98162.13;5027879;28;20046;-76
2021/11/27 06:20:47;;;;;;;5.35;1.75;;;;;;;1.46;100.00;98145.44;5047868;28;20095;-76
2021/11/27 06:23:12;;;;;;;9.00;1.90;;;;;;;1.47;100.00;98141.59;5016412;28;20041;-76
2021/11/27 06:25:37;;;;;;;5.57;1.52;;;;;;;1.48;100.00;98145.97;5033860;28;20370;-76
2021/11/27 06:28:03;;;;;;;7.32;1.33;;;;;;;1.50;100.00;98160.13;5032205;28;20033;-76
2021/11/27 06:30:29;;;;;;;6.18;1.60;;;;;;;1.51;100.00;98160.97;5033574;28;20025;-76
2021/11/27 06:32:54;;;;;;;7.53;1.85;;;;;;;1.54;100.00;98155.72;5032619;28;20037;-76
2021/11/27 06:35:20;;;;;;;8.80;1.95;;;;;;;1.52;100.00;98155.19;5028480;28;20088;-76
2021/11/27 06:37:45;;;;;;;10.15;1.65;;;;;;;1.54;100.00;98166.69;5029096;28;20489;-76
2021/11/27 06:40:11;;;;;;;4.30;1.50;;;;;;;1.56;100.00;98160.91;5034223;28;20030;-76
2021/11/27 06:42:36;;;;;;;7.10;1.45;;;;;;;1.56;100.00;98158.16;5031805;28;20042;-76
2021/11/27 06:45:03;;;;;;;5.38;2.08;;;;;;;1.58;100.00;98149.66;5033979;28;20037;-76
2021/11/27 06:47:29;;;;;;;7.35;1.40;;;;;;;1.56;100.00;98156.25;5033211;28;20033;-76
2021/11/27 06:49:55;;;;;;;5.40;1.20;;;;;;;1.58;100.00;98157.88;5029996;28;20061;-76
2021/11/27 06:52:20;;;;;;;8.77;1.65;;;;;;;1.59;100.00;98165.81;5017073;28;20036;-76
2021/11/27 06:54:46;;;;;;;7.65;1.33;;;;;;;1.62;100.00;98178.91;5035361;28;20041;-76
2021/11/27 06:57:12;;;;;;;8.35;1.80;;;;;;;1.67;100.00;98191.69;5029420;28;20030;-76
2021/11/27 06:59:38;;;;;;;19.90;1.95;;;;;;;1.68;100.00;98188.66;5000714;28;20038;-76
2021/11/27 07:02:04;;;;;;;8.88;1.80;;;;;;;1.70;100.00;98189.19;5033731;28;20533;-76
2021/11/27 07:04:29;;;;;;;12.93;3.00;;;;;;;1.74;100.00;98186.69;5000135;28;20034;-76
2021/11/27 07:06:55;;;;;;;16.75;2.75;;;;;;;1.82;100.00;98179.75;5021853;28;20040;-76
2021/11/27 07:09:20;;;;;;;16.08;2.53;;;;;;;1.85;100.00;98181.91;5032705;28;20390;-76
2021/11/27 07:11:46;;;;;;;14.43;2.30;;;;;;;1.88;100.00;98190.34;5032670;28;20029;-76
2021/11/27 07:14:11;;;;;;;17.35;2.85;;;;;;;1.92;100.00;98191.38;5020754;28;20033;-76
2021/11/27 07:16:37;;;;;;;15.75;2.70;;;;;;;1.96;100.00;98199.81;5011632;28;20541;-76
2021/11/27 07:19:03;;;;;;;17.30;2.60;;;;;;;1.99;100.00;98182.81;5030038;28;20034;-76
2021/11/27 07:21:28;;;;;;;18.27;2.58;;;;;;;2.02;100.00;98190.44;5020892;28;20108;-76
2021/11/27 07:23:54;;;;;;;19.77;2.45;;;;;;;2.06;100.00;98215.28;5034303;28;20223;-76
2021/11/27 07:26:20;;;;;;;16.15;2.85;;;;;;;2.09;100.00;98207.31;5043785;28;20030;-76
2021/11/27 07:28:45;;;;;;;15.98;2.92;;;;;;;2.12;100.00;98205.91;5020364;28;20059;-76
2021/11/27 07:31:12;;;;;;;16.00;2.47;;;;;;;2.16;100.00;98210.47;5035082;28;20029;-76
2021/11/27 07:33:37;;;;;;;18.33;3.53;;;;;;;2.17;100.00;98238.69;5020555;28;20026;-76
2021/11/27 07:36:04;;;;;;;20.13;3.63;;;;;;;2.21;100.00;98229.59;5033940;28;20026;-76
2021/11/27 07:38:29;;;;;;;25.30;3.70;;;;;;;2.23;100.00;98219.16;5035175;28;20025;-75
2021/11/27 07:40:55;;;;;;;20.23;4.32;;;;;;;2.30;100.00;98240.69;5038219;28;20904;-74
2021/11/27 07:43:20;;;;;;;21.55;3.42;;;;;;;2.39;100.00;98273.72;5034303;28;20432;-75
2021/11/27 07:45:46;;;;;;;12.30;2.63;;;;;;;2.44;100.00;98241.59;5034177;28;20029;-75
2021/11/27 07:48:11;;;;;;;25.83;3.30;;;;;;;2.56;100.00;98230.16;5019943;28;20548;-75
2021/11/27 07:50:37;;;;;;;18.42;2.60;;;;;;;2.60;100.00;98236.69;5027126;28;20029;-76
2021/11/27 07:53:03;;;;;;;16.85;2.60;;;;;;;2.66;100.00;98242.91;5040034;28;20040;-75
2021/11/27 07:55:29;;;;;;;14.52;2.45;;;;;;;2.69;100.00;98256.03;5034826;28;20045;-75
2021/11/27 07:57:54;;;;;;;11.30;2.70;;;;;;;2.69;100.00;98250.53;5034452;28;20041;-74
2021/11/27 08:00:20;;;;;;;17.00;3.80;;;;;;;2.66;100.00;98251.16;5015960;28;20469;-73
2021/11/27 08:02:45;;;;;;;15.18;3.80;;;;;;;2.64;100.00;98254.16;5019474;28;20033;-73
2021/11/27 08:05:11;;;;;;;19.13;4.45;;;;;;;2.63;100.00;98251.75;5000088;28;20025;-73
2021/11/27 08:07:37;;;;;;;23.30;6.88;;;;;;;2.64;100.00;98253.34;5035002;28;20030;-74
2021/11/27 08:10:07;;;;;;;18.73;5.13;;;;;;;2.65;100.00;98260.50;5021139;28;20032;-74
2021/11/27 08:12:33;;;;;;;20.20;5.32;;;;;;;2.64;100.00;98261.59;5029984;28;20478;-74
2021/11/27 08:14:58;;;;;;;22.33;4.97;;;;;;;2.63;100.00;98263.50;5031990;28;20034;-73
2021/11/27 08:17:24;;;;;;;16.92;5.07;;;;;;;2.64;100.00;98278.03;5035161;28;20034;-74
2021/11/27 08:19:49;;;;;;;22.65;5.50;;;;;;;2.65;100.00;98276.94;5017751;28;20464;-74
2021/11/27 08:22:15;;;;;;;19.75;5.15;;;;;;;2.63;100.00;98274.47;5002670;28;20025;-74
2021/11/27 08:24:40;;;;;;;17.60;4.00;;;;;;;2.67;100.00;98291.13;4988191;28;20041;-74
2021/11/27 08:27:06;;;;;;;18.63;3.88;;;;;;;2.69;100.00;98299.88;5018749;28;20037;-74
2021/11/27 08:29:31;;;;;;;19.42;3.72;;;;;;;2.68;100.00;98320.19;5036546;28;20037;-74
2021/11/27 08:31:57;;;;;;;16.23;4.00;;;;;;;2.65;100.00;98320.78;5035241;28;20038;-76
2021/11/27 08:34:23;;;;;;;16.60;4.43;;;;;;;2.63;100.00;98331.22;5016871;28;20032;-76
2021/11/27 08:36:49;;;;;;;22.40;5.20;;;;;;;2.61;100.00;98320.53;5035996;28;20459;-76
2021/11/27 08:39:14;;;;;;;20.92;5.18;;;;;;;2.62;100.00;98310.41;5018781;28;20018;-76
2021/11/27 08:41:40;;;;;;;14.32;3.13;;;;;;;2.60;100.00;98309.88;5036143;28;20084;-76
2021/11/27 08:44:05;;;;;;;13.07;3.45;;;;;;;2.61;100.00;98314.25;5036514;28;20072;-76
2021/11/27 08:46:31;;;;;;;19.55;3.20;;;;;;;2.61;100.00;98322.47;5009242;28;20045;-76
2021/11/27 08:48:56;;;;;;;19.55;2.95;;;;;;;2.63;100.00;98339.44;5030573;28;20041;-76
2021/11/27 08:51:22;;;;;;;22.45;3.35;;;;;;;2.65;100.00;98359.97;5035986;28;20112;-76
2021/11/27 08:53:47;;;;;;;18.45;3.83;;;;;;;2.66;100.00;98356.09;5035865;28;20042;-76
2021/11/27 08:56:13;;;;;;;18.65;3.38;;;;;;;2.66;100.00;98366.25;5016210;28;20076;-76
2021/11/27 08:58:39;;;;;;;19.30;4.18;;;;;;;2.66;100.00;98347.06;5028689;28;20056;-76
2021/11/27 09:01:04;;;;;;;23.27;3.85;;;;;;;2.67;100.00;98356.91;5031981;28;20033;-76
2021/11/27 09:03:30;;;;;;;18.95;3.97;;;;;;;2.67;100.00;98351.44;5032167;28;20075;-76
2021/11/27 09:05:55;;;;;;;17.60;3.53;;;;;;;2.72;100.00;98359.59;5035198;28;20029;-77
2021/11/27 09:08:21;;;;;;;15.60;3.05;;;;;;;2.72;100.00;98348.63;5032976;28;20036;-77
2021/11/27 09:10:47;;;;;;;14.93;2.65;;;;;;;2.74;100.00;98360.13;5034284;28;20033;-76
2021/11/27 09:13:13;;;;;;;23.23;3.28;;;;;;;2.75;100.00;98369.97;5026357;28;20088;-77
2021/11/27 09:15:39;;;;;;;18.80;3.03;;;;;;;2.79;100.00;98372.94;4998395;28;20116;-76
2021/11/27 09:18:04;;;;;;;17.83;3.28;;;;;;;2.81;100.00;98374.25;5035520;28;20030;-76
2021/11/27 09:20:32;;;;;;;16.23;3.00;;;;;;;2.85;100.00;98382.72;5033124;28;20037;-77
2021/11/27 09:22:58;;;;;;;15.73;3.30;;;;;;;2.87;100.00;98383.22;5035232;28;20033;-77
2021/11/27 09:25:25;;;;;;;12.23;3.03;;;;;;;2.86;100.00;98370.63;5044253;28;20029;-76
2021/11/27 09:27:51;;;;;;;18.48;3.28;;;;;;;2.90;100.00;98396.38;5032988;28;20064;-76
2021/11/27 09:30:17;;;;;;;15.05;3.03;;;;;;;2.89;100.00;98403.75;5027460;28;20048;-74
2021/11/27 09:32:42;;;;;;;23.98;3.95;;;;;;;2.89;100.00;98401.00;5035506;28;20033;-75
2021/11/27 09:35:08;;;;;;;23.77;4.00;;;;;;;2.91;100.00;98409.75;5034107;28;20037;-75
2021/11/27 09:37:34;;;;;;;23.42;5.00;;;;;;;2.96;100.00;98419.06;5033289;28;20045;-75
2021/11/27 09:39:59;;;;;;;19.02;4.05;;;;;;;2.95;100.00;98423.69;5033723;28;20033;-75
2021/11/27 09:42:25;;;;;;;17.40;3.63;;;;;;;2.96;100.00;98419.06;5033080;28;20053;-74
2021/11/27 09:44:52;;;;;;;20.45;4.75;;;;;;;2.98;100.00;98405.84;5028897;28;20034;-75
2021/11/27 09:47:18;;;;;;;19.08;3.97;;;;;;;3.03;100.00;98430.44;5034118;28;20026;-75
2021/11/27 09:49:44;;;;;;;16.98;3.58;;;;;;;3.02;100.00;98404.16;4998443;28;20037;-74
2021/11/27 09:52:10;;;;;;;13.88;4.28;;;;;;;3.02;100.00;98426.91;5031647;28;20036;-74
2021/11/27 09:54:35;;;;;;;18.73;3.95;;;;;;;3.06;100.00;98435.34;5031476;28;20025;-74
2021/11/27 09:57:04;;;;;;;14.65;2.97;;;;;;;3.11;100.00;98430.59;5031660;28;20040;-73
2021/11/27 09:59:29;;;;;;;17.67;3.10;;;;;;;3.13;100.00;98450.34;5025191;28;20037;-74
2021/11/27 10:01:55;;;;;;;22.42;4.32;;;;;;;3.12;100.00;98461.59;5015939;28;20029;-74
2021/11/27 10:04:22;;;;;;;19.30;4.80;;;;;;;3.15;100.00;98461.03;5034062;28;20032;-74
2021/11/27 10:06:47;;;;;;;19.00;4.15;;;;;;;3.12;100.00;98467.06;5030964;28;20476;-73
2021/11/27 10:09:19;;;;;;;18.58;4.78;;;;;;;3.09;100.00;98475.88;5031996;28;20085;-74
2021/11/27 10:11:45;;;;;;;22.88;4.65;;;;;;;3.09;100.00;98481.38;5034738;28;20037;-74
2021/11/27 10:14:11;;;;;;;18.50;4.40;;;;;;;3.06;100.00;98512.13;5033128;28;20041;-74
2021/11/27 10:16:59;;;;;;;16.10;3.58;;;;;;;3.04;100.00;98498.72;5036794;28;20037;-74
2021/11/27 10:19:28;;;;;;;17.50;3.53;;;;;;;3.03;100.00;98488.84;5022685;28;20030;-74
2021/11/27 10:21:59;;;;;;;17.38;3.88;;;;;;;3.01;100.00;98495.75;5022994;28;20034;-74
2021/11/27 10:24:26;;;;;;;17.85;4.05;;;;;;;2.98;100.00;98508.13;5034828;28;20080;-74
2021/11/27 10:26:51;;;;;;;19.27;4.38;;;;;;;2.95;100.00;98495.00;5035230;28;20040;-73
2021/11/27 10:29:21;;;;;;;21.80;5.50;;;;;;;2.94;100.00;98506.25;5033233;28;20545;-74
2021/11/27 10:31:48;;;;;;;17.20;5.03;;;;;;;2.95;100.00;98505.16;5032428;28;20033;-74
2021/11/27 10:34:23;;;;;;;13.60;4.95;;;;;;;2.93;100.00;98501.91;5019982;28;20030;-74
2021/11/27 10:36:49;;;;;;;19.27;5.88;;;;;;;2.93;100.00;98513.69;5034245;28;20560;-71
2021/11/27 10:39:15;;;;;;;17.25;4.97;;;;;;;3.05;100.00;98530.53;5031469;28;20076;-71
2021/11/27 10:42:01;;;;;;;19.08;5.22;;;;;;;3.01;100.00;98525.91;5023570;28;20496;-72
2021/11/27 10:44:29;;;;;;;9.52;3.45;;;;;;;3.04;100.00;98497.91;5032327;28;20520;-72
2021/11/27 10:47:09;;;;;;;11.73;3.20;;;;;;;3.00;100.00;98527.84;5032227;28;20030;-72
2021/11/27 10:49:35;;;;;;;16.23;3.95;;;;;;;3.01;100.00;98536.88;5032618;28;20033;-72
2021/11/27 10:52:11;;;;;;;14.70;3.72;;;;;;;3.02;100.00;98527.56;5038623;28;20033;-72
2021/11/27 10:54:50;;;;;;;10.52;3.47;;;;;;;3.00;100.00;98532.50;5035594;28;20437;-72
2021/11/27 10:57:28;;;;;;;16.42;3.92;;;;;;;2.99;100.00;98531.69;5036046;28;20104;-72
2021/11/27 10:59:55;;;;;;;34.38;7.20;;;;;;;2.99;100.00;98525.41;5036582;28;20030;-71
2021/11/27 11:02:22;;;;;;;27.70;6.60;;;;;;;3.05;100.00;98526.97;5036824;28;20509;-74
2021/11/27 11:05:00;;;;;;;25.00;7.60;;;;;;;3.14;100.00;98526.00;5038662;28;20026;-73
2021/11/27 11:07:27;;;;;;;30.67;7.68;;;;;;;3.23;100.00;98533.59;5017857;28;20083;-73
2021/11/27 11:10:06;;;;;;;41.13;9.63;;;;;;;3.42;100.00;98552.84;5035146;28;20105;-72
2021/11/27 11:12:42;;;;;;;23.35;5.97;;;;;;;3.50;100.00;98554.91;5029180;28;20034;-72
2021/11/27 11:15:13;;;;;;;23.48;5.47;;;;;;;3.60;100.00;98551.25;5036498;28;20041;-70
2021/11/27 11:17:39;;;;;;;25.15;5.88;;;;;;;3.60;100.00;98552.03;5033581;28;20029;-75
2021/11/27 11:20:12;;;;;;;24.63;5.65;;;;;;;3.54;100.00;98564.22;5020353;28;20390;-71
2021/11/27 11:22:37;;;;;;;20.77;4.22;;;;;;;3.54;100.00;98555.97;5024444;28;20063;-74
2021/11/27 11:25:08;;;;;;;16.70;3.85;;;;;;;3.43;100.00;98562.72;5033342;28;20045;-74